sensor_id;sensor_type;location;lat;lon;timestamp;P1;durP1;ratioP1;P2;durP2;ratioP2
10452;SDS011;5274;51.992;8.518;2023-07-31T00:00:14;47.00;;;44.00;;
10452;SDS011;5274;51.992;8.518;2023-07-31T00:02:41;46.90;;;43.90;;
10452;SDS011;5274;51.992;8.518;2023-07-31T00:05:08;47.13;;;44.13;;
10452;SDS011;5274;51.992;8.518;2023-07-31T00:07:34;48.17;;;45.17;;
10452;SDS011;5274;51.992;8.518;2023-07-31T00:10:00;47.70;;;44.70;;
10452;SDS011;5274;51.992;8.518;2023-07-31T00:12:27;47.10;;;44.10;;
10452;SDS011;5274;51.992;8.518;2023-07-31T00:14:53;49.25;;;46.00;;
10452;SDS011;5274;51.992;8.518;2023-07-31T00:17:19;49.13;;;46.00;;
10452;SDS011;5274;51.992;8.518;2023-07-31T00:19:45;50.58;;;46.83;;
10452;SDS011;5274;51.992;8.518;2023-07-31T00:22:11;49.70;;;46.38;;
10452;SDS011;5274;51.992;8.518;2023-07-31T00:24:37;50.03;;;46.65;;
10452;SDS011;5274;51.992;8.518;2023-07-31T00:27:03;50.42;;;46.92;;
10452;SDS011;5274;51.992;8.518;2023-07-31T00:29:29;50.03;;;46.67;;
10452;SDS011;5274;51.992;8.518;2023-07-31T00:31:55;49.20;;;45.90;;
10452;SDS011;5274;51.992;8.518;2023-07-31T00:34:21;49.55;;;46.15;;
10452;SDS011;5274;51.992;8.518;2023-07-31T00:36:47;50.03;;;46.67;;
10452;SDS011;5274;51.992;8.518;2023-07-31T00:39:13;48.22;;;45.22;;
10452;SDS011;5274;51.992;8.518;2023-07-31T00:41:39;49.90;;;46.70;;
10452;SDS011;5274;51.992;8.518;2023-07-31T00:44:05;50.63;;;47.22;;
10452;SDS011;5274;51.992;8.518;2023-07-31T00:46:31;51.03;;;47.63;;
10452;SDS011;5274;51.992;8.518;2023-07-31T00:48:57;52.22;;;48.50;;
10452;SDS011;5274;51.992;8.518;2023-07-31T00:51:23;50.13;;;46.83;;
10452;SDS011;5274;51.992;8.518;2023-07-31T00:53:49;49.58;;;46.28;;
10452;SDS011;5274;51.992;8.518;2023-07-31T00:56:15;49.13;;;46.05;;
10452;SDS011;5274;51.992;8.518;2023-07-31T00:58:41;47.22;;;44.13;;
10452;SDS011;5274;51.992;8.518;2023-07-31T01:01:07;46.13;;;43.22;;
10452;SDS011;5274;51.992;8.518;2023-07-31T01:03:33;49.58;;;46.38;;
10452;SDS011;5274;51.992;8.518;2023-07-31T01:06:23;47.95;;;44.90;;
10452;SDS011;5274;51.992;8.518;2023-07-31T01:08:58;48.35;;;45.20;;
10452;SDS011;5274;51.992;8.518;2023-07-31T01:11:28;48.92;;;45.65;;
10452;SDS011;5274;51.992;8.518;2023-07-31T01:13:55;47.25;;;44.13;;
10452;SDS011;5274;51.992;8.518;2023-07-31T01:16:21;47.00;;;43.80;;
10452;SDS011;5274;51.992;8.518;2023-07-31T01:18:47;46.40;;;43.30;;
10452;SDS011;5274;51.992;8.518;2023-07-31T01:21:18;46.70;;;43.63;;
10452;SDS011;5274;51.992;8.518;2023-07-31T01:26:23;47.60;;;44.60;;
10452;SDS011;5274;51.992;8.518;2023-07-31T01:29:01;47.35;;;44.28;;
10452;SDS011;5274;51.992;8.518;2023-07-31T01:31:29;46.10;;;43.20;;
10452;SDS011;5274;51.992;8.518;2023-07-31T01:33:56;45.65;;;42.55;;
10452;SDS011;5274;51.992;8.518;2023-07-31T01:36:23;47.83;;;44.58;;
10452;SDS011;5274;51.992;8.518;2023-07-31T01:38:49;46.42;;;43.42;;
10452;SDS011;5274;51.992;8.518;2023-07-31T01:41:18;46.35;;;43.33;;
10452;SDS011;5274;51.992;8.518;2023-07-31T01:43:47;47.30;;;44.30;;
10452;SDS011;5274;51.992;8.518;2023-07-31T01:46:14;47.13;;;44.13;;
10452;SDS011;5274;51.992;8.518;2023-07-31T01:48:39;47.60;;;44.50;;
10452;SDS011;5274;51.992;8.518;2023-07-31T01:51:05;47.42;;;44.42;;
10452;SDS011;5274;51.992;8.518;2023-07-31T01:53:32;47.95;;;44.55;;
10452;SDS011;5274;51.992;8.518;2023-07-31T01:55:58;47.35;;;44.25;;
10452;SDS011;5274;51.992;8.518;2023-07-31T01:58:24;46.53;;;43.45;;
10452;SDS011;5274;51.992;8.518;2023-07-31T02:00:50;46.75;;;43.75;;
10452;SDS011;5274;51.992;8.518;2023-07-31T02:03:16;46.83;;;43.72;;
10452;SDS011;5274;51.992;8.518;2023-07-31T02:05:45;47.83;;;44.63;;
10452;SDS011;5274;51.992;8.518;2023-07-31T02:08:11;49.42;;;46.20;;
10452;SDS011;5274;51.992;8.518;2023-07-31T02:10:37;49.63;;;46.50;;
10452;SDS011;5274;51.992;8.518;2023-07-31T02:13:03;49.08;;;45.97;;
10452;SDS011;5274;51.992;8.518;2023-07-31T02:15:30;48.22;;;45.13;;
10452;SDS011;5274;51.992;8.518;2023-07-31T02:17:55;47.65;;;44.65;;
10452;SDS011;5274;51.992;8.518;2023-07-31T02:20:21;48.55;;;45.45;;
10452;SDS011;5274;51.992;8.518;2023-07-31T02:22:47;49.78;;;46.53;;
10452;SDS011;5274;51.992;8.518;2023-07-31T02:25:13;49.53;;;46.35;;
10452;SDS011;5274;51.992;8.518;2023-07-31T02:27:39;51.03;;;47.72;;
10452;SDS011;5274;51.992;8.518;2023-07-31T02:30:05;50.97;;;47.67;;
10452;SDS011;5274;51.992;8.518;2023-07-31T02:32:31;52.40;;;49.00;;
10452;SDS011;5274;51.992;8.518;2023-07-31T02:34:57;50.60;;;47.30;;
10452;SDS011;5274;51.992;8.518;2023-07-31T02:37:23;51.58;;;48.28;;
10452;SDS011;5274;51.992;8.518;2023-07-31T02:39:49;48.90;;;45.72;;
10452;SDS011;5274;51.992;8.518;2023-07-31T02:42:15;49.88;;;46.75;;
10452;SDS011;5274;51.992;8.518;2023-07-31T02:44:41;50.13;;;46.83;;
10452;SDS011;5274;51.992;8.518;2023-07-31T02:47:07;49.92;;;46.72;;
10452;SDS011;5274;51.992;8.518;2023-07-31T02:49:33;50.42;;;47.22;;
10452;SDS011;5274;51.992;8.518;2023-07-31T02:51:59;47.28;;;44.45;;
10452;SDS011;5274;51.992;8.518;2023-07-31T02:54:25;49.20;;;46.10;;
10452;SDS011;5274;51.992;8.518;2023-07-31T02:56:51;49.67;;;46.53;;
10452;SDS011;5274;51.992;8.518;2023-07-31T02:59:17;49.88;;;46.72;;
10452;SDS011;5274;51.992;8.518;2023-07-31T03:01:43;42.80;;;40.55;;
10452;SDS011;5274;51.992;8.518;2023-07-31T03:04:09;41.42;;;39.33;;
10452;SDS011;5274;51.992;8.518;2023-07-31T03:06:35;41.95;;;39.65;;
10452;SDS011;5274;51.992;8.518;2023-07-31T03:09:01;42.22;;;39.67;;
10452;SDS011;5274;51.992;8.518;2023-07-31T03:11:27;41.95;;;39.75;;
10452;SDS011;5274;51.992;8.518;2023-07-31T03:13:53;42.03;;;39.63;;
10452;SDS011;5274;51.992;8.518;2023-07-31T03:16:19;43.58;;;41.10;;
10452;SDS011;5274;51.992;8.518;2023-07-31T03:18:45;44.50;;;41.80;;
10452;SDS011;5274;51.992;8.518;2023-07-31T03:21:12;47.78;;;44.75;;
10452;SDS011;5274;51.992;8.518;2023-07-31T03:23:37;48.13;;;45.08;;
10452;SDS011;5274;51.992;8.518;2023-07-31T03:26:05;48.63;;;45.30;;
10452;SDS011;5274;51.992;8.518;2023-07-31T03:28:31;49.05;;;45.83;;
10452;SDS011;5274;51.992;8.518;2023-07-31T03:30:57;47.80;;;44.25;;
10452;SDS011;5274;51.992;8.518;2023-07-31T03:33:24;49.30;;;45.80;;
10452;SDS011;5274;51.992;8.518;2023-07-31T03:35:50;50.20;;;46.33;;
10452;SDS011;5274;51.992;8.518;2023-07-31T03:38:16;52.35;;;48.30;;
10452;SDS011;5274;51.992;8.518;2023-07-31T03:40:42;50.33;;;46.63;;
10452;SDS011;5274;51.992;8.518;2023-07-31T03:43:07;51.22;;;47.20;;
10452;SDS011;5274;51.992;8.518;2023-07-31T03:45:33;52.33;;;47.70;;
10452;SDS011;5274;51.992;8.518;2023-07-31T03:47:59;51.75;;;47.65;;
10452;SDS011;5274;51.992;8.518;2023-07-31T03:50:25;52.65;;;48.22;;
10452;SDS011;5274;51.992;8.518;2023-07-31T03:52:52;51.67;;;47.53;;
10452;SDS011;5274;51.992;8.518;2023-07-31T03:55:18;53.92;;;49.67;;
10452;SDS011;5274;51.992;8.518;2023-07-31T03:57:44;55.08;;;50.42;;
10452;SDS011;5274;51.992;8.518;2023-07-31T04:00:10;53.85;;;49.85;;
10452;SDS011;5274;51.992;8.518;2023-07-31T04:02:36;53.88;;;49.55;;
10452;SDS011;5274;51.992;8.518;2023-07-31T04:05:02;54.55;;;50.50;;
10452;SDS011;5274;51.992;8.518;2023-07-31T04:07:28;50.58;;;46.38;;
10452;SDS011;5274;51.992;8.518;2023-07-31T04:09:54;50.63;;;46.85;;
10452;SDS011;5274;51.992;8.518;2023-07-31T04:12:20;48.20;;;44.33;;
10452;SDS011;5274;51.992;8.518;2023-07-31T04:14:45;44.92;;;41.22;;
10452;SDS011;5274;51.992;8.518;2023-07-31T04:17:11;49.47;;;45.15;;
10452;SDS011;5274;51.992;8.518;2023-07-31T04:19:37;48.33;;;44.53;;
10452;SDS011;5274;51.992;8.518;2023-07-31T04:22:03;49.10;;;45.17;;
10452;SDS011;5274;51.992;8.518;2023-07-31T04:24:29;57.05;;;51.60;;
10452;SDS011;5274;51.992;8.518;2023-07-31T04:26:55;58.70;;;52.88;;
10452;SDS011;5274;51.992;8.518;2023-07-31T04:29:21;46.28;;;42.03;;
10452;SDS011;5274;51.992;8.518;2023-07-31T04:31:48;45.30;;;41.65;;
10452;SDS011;5274;51.992;8.518;2023-07-31T04:34:14;47.90;;;44.10;;
10452;SDS011;5274;51.992;8.518;2023-07-31T04:36:39;47.33;;;43.70;;
10452;SDS011;5274;51.992;8.518;2023-07-31T04:39:05;45.85;;;41.85;;
10452;SDS011;5274;51.992;8.518;2023-07-31T04:41:32;44.65;;;40.88;;
10452;SDS011;5274;51.992;8.518;2023-07-31T04:43:58;44.10;;;40.20;;
10452;SDS011;5274;51.992;8.518;2023-07-31T04:46:24;44.70;;;41.22;;
10452;SDS011;5274;51.992;8.518;2023-07-31T04:48:50;46.67;;;42.78;;
10452;SDS011;5274;51.992;8.518;2023-07-31T04:51:15;44.75;;;40.90;;
10452;SDS011;5274;51.992;8.518;2023-07-31T04:53:41;45.90;;;42.05;;
10452;SDS011;5274;51.992;8.518;2023-07-31T04:56:07;46.10;;;42.10;;
10452;SDS011;5274;51.992;8.518;2023-07-31T04:58:33;47.42;;;43.30;;
10452;SDS011;5274;51.992;8.518;2023-07-31T05:00:59;45.35;;;41.03;;
10452;SDS011;5274;51.992;8.518;2023-07-31T05:03:25;42.90;;;38.88;;
10452;SDS011;5274;51.992;8.518;2023-07-31T05:05:51;42.95;;;39.25;;
10452;SDS011;5274;51.992;8.518;2023-07-31T05:08:17;43.55;;;39.97;;
10452;SDS011;5274;51.992;8.518;2023-07-31T05:10:43;45.53;;;41.40;;
10452;SDS011;5274;51.992;8.518;2023-07-31T05:13:09;40.55;;;37.58;;
10452;SDS011;5274;51.992;8.518;2023-07-31T05:15:35;43.60;;;39.78;;
10452;SDS011;5274;51.992;8.518;2023-07-31T05:18:01;42.53;;;38.63;;
10452;SDS011;5274;51.992;8.518;2023-07-31T05:20:27;42.38;;;38.28;;
10452;SDS011;5274;51.992;8.518;2023-07-31T05:22:53;41.00;;;37.33;;
10452;SDS011;5274;51.992;8.518;2023-07-31T05:25:19;41.15;;;37.78;;
10452;SDS011;5274;51.992;8.518;2023-07-31T05:27:45;39.67;;;36.55;;
10452;SDS011;5274;51.992;8.518;2023-07-31T05:30:11;39.40;;;35.63;;
10452;SDS011;5274;51.992;8.518;2023-07-31T05:32:37;40.95;;;37.30;;
10452;SDS011;5274;51.992;8.518;2023-07-31T05:35:03;42.17;;;38.42;;
10452;SDS011;5274;51.992;8.518;2023-07-31T05:37:29;41.05;;;37.70;;
10452;SDS011;5274;51.992;8.518;2023-07-31T05:39:55;39.83;;;36.88;;
10452;SDS011;5274;51.992;8.518;2023-07-31T05:42:21;42.00;;;38.50;;
10452;SDS011;5274;51.992;8.518;2023-07-31T05:44:47;42.03;;;38.58;;
10452;SDS011;5274;51.992;8.518;2023-07-31T05:47:13;41.00;;;37.65;;
10452;SDS011;5274;51.992;8.518;2023-07-31T05:49:39;40.80;;;37.75;;
10452;SDS011;5274;51.992;8.518;2023-07-31T05:52:05;41.70;;;38.13;;
10452;SDS011;5274;51.992;8.518;2023-07-31T05:54:31;40.95;;;37.60;;
10452;SDS011;5274;51.992;8.518;2023-07-31T05:56:57;40.33;;;37.28;;
10452;SDS011;5274;51.992;8.518;2023-07-31T05:59:23;41.03;;;37.67;;
10452;SDS011;5274;51.992;8.518;2023-07-31T06:01:49;40.22;;;36.67;;
10452;SDS011;5274;51.992;8.518;2023-07-31T06:04:15;38.83;;;35.50;;
10452;SDS011;5274;51.992;8.518;2023-07-31T06:06:41;38.78;;;35.45;;
10452;SDS011;5274;51.992;8.518;2023-07-31T06:09:07;38.08;;;34.92;;
10452;SDS011;5274;51.992;8.518;2023-07-31T06:11:33;37.08;;;34.25;;
10452;SDS011;5274;51.992;8.518;2023-07-31T06:13:59;38.95;;;35.67;;
10452;SDS011;5274;51.992;8.518;2023-07-31T06:16:25;37.42;;;34.58;;
10452;SDS011;5274;51.992;8.518;2023-07-31T06:18:52;42.78;;;39.25;;
10452;SDS011;5274;51.992;8.518;2023-07-31T06:21:18;41.50;;;38.38;;
10452;SDS011;5274;51.992;8.518;2023-07-31T06:23:44;42.47;;;39.15;;
10452;SDS011;5274;51.992;8.518;2023-07-31T06:26:10;41.58;;;37.88;;
10452;SDS011;5274;51.992;8.518;2023-07-31T06:28:36;40.80;;;37.45;;
10452;SDS011;5274;51.992;8.518;2023-07-31T06:31:01;40.13;;;37.17;;
10452;SDS011;5274;51.992;8.518;2023-07-31T06:33:27;39.03;;;36.08;;
10452;SDS011;5274;51.992;8.518;2023-07-31T06:35:53;37.28;;;34.28;;
10452;SDS011;5274;51.992;8.518;2023-07-31T06:38:21;39.60;;;36.45;;
10452;SDS011;5274;51.992;8.518;2023-07-31T06:40:48;37.83;;;34.83;;
10452;SDS011;5274;51.992;8.518;2023-07-31T06:43:14;36.75;;;33.58;;
10452;SDS011;5274;51.992;8.518;2023-07-31T06:45:40;39.88;;;36.47;;
10452;SDS011;5274;51.992;8.518;2023-07-31T06:48:06;37.20;;;33.78;;
10452;SDS011;5274;51.992;8.518;2023-07-31T06:50:31;38.97;;;35.97;;
10452;SDS011;5274;51.992;8.518;2023-07-31T06:52:58;41.53;;;38.05;;
10452;SDS011;5274;51.992;8.518;2023-07-31T06:55:24;42.67;;;38.88;;
10452;SDS011;5274;51.992;8.518;2023-07-31T06:57:51;40.30;;;36.78;;
10452;SDS011;5274;51.992;8.518;2023-07-31T07:00:18;38.85;;;35.78;;
10452;SDS011;5274;51.992;8.518;2023-07-31T07:02:44;39.35;;;36.28;;
10452;SDS011;5274;51.992;8.518;2023-07-31T07:05:12;38.90;;;35.88;;
10452;SDS011;5274;51.992;8.518;2023-07-31T07:07:38;38.58;;;35.75;;
10452;SDS011;5274;51.992;8.518;2023-07-31T07:10:04;38.72;;;35.22;;
10452;SDS011;5274;51.992;8.518;2023-07-31T07:12:31;37.97;;;34.90;;
10452;SDS011;5274;51.992;8.518;2023-07-31T07:14:57;33.65;;;30.30;;
10452;SDS011;5274;51.992;8.518;2023-07-31T07:17:24;35.08;;;32.47;;
10452;SDS011;5274;51.992;8.518;2023-07-31T07:19:50;34.20;;;31.42;;
10452;SDS011;5274;51.992;8.518;2023-07-31T07:22:16;35.53;;;32.63;;
10452;SDS011;5274;51.992;8.518;2023-07-31T07:24:42;33.88;;;30.85;;
10452;SDS011;5274;51.992;8.518;2023-07-31T07:27:08;36.40;;;33.28;;
10452;SDS011;5274;51.992;8.518;2023-07-31T07:29:34;36.67;;;33.90;;
10452;SDS011;5274;51.992;8.518;2023-07-31T07:32:00;38.20;;;35.38;;
10452;SDS011;5274;51.992;8.518;2023-07-31T07:34:26;39.80;;;36.72;;
10452;SDS011;5274;51.992;8.518;2023-07-31T07:36:52;38.65;;;35.75;;
10452;SDS011;5274;51.992;8.518;2023-07-31T07:39:18;39.00;;;35.88;;
10452;SDS011;5274;51.992;8.518;2023-07-31T07:41:45;39.10;;;36.03;;
10452;SDS011;5274;51.992;8.518;2023-07-31T07:44:11;35.45;;;32.60;;
10452;SDS011;5274;51.992;8.518;2023-07-31T07:46:37;38.97;;;35.70;;
10452;SDS011;5274;51.992;8.518;2023-07-31T07:49:03;37.08;;;34.17;;
10452;SDS011;5274;51.992;8.518;2023-07-31T07:51:29;39.70;;;36.67;;
10452;SDS011;5274;51.992;8.518;2023-07-31T07:53:56;39.50;;;36.70;;
10452;SDS011;5274;51.992;8.518;2023-07-31T07:56:23;42.95;;;39.63;;
10452;SDS011;5274;51.992;8.518;2023-07-31T07:58:49;42.38;;;38.80;;
10452;SDS011;5274;51.992;8.518;2023-07-31T08:01:15;41.92;;;38.88;;
10452;SDS011;5274;51.992;8.518;2023-07-31T08:03:41;44.63;;;41.65;;
10452;SDS011;5274;51.992;8.518;2023-07-31T08:06:07;44.28;;;41.33;;
10452;SDS011;5274;51.992;8.518;2023-07-31T08:08:34;45.25;;;42.13;;
10452;SDS011;5274;51.992;8.518;2023-07-31T08:11:00;45.80;;;42.65;;
10452;SDS011;5274;51.992;8.518;2023-07-31T08:13:26;47.13;;;43.70;;
10452;SDS011;5274;51.992;8.518;2023-07-31T08:15:52;46.17;;;43.05;;
10452;SDS011;5274;51.992;8.518;2023-07-31T08:18:18;45.40;;;42.10;;
10452;SDS011;5274;51.992;8.518;2023-07-31T08:20:44;45.83;;;42.65;;
10452;SDS011;5274;51.992;8.518;2023-07-31T08:23:10;52.67;;;49.08;;
10452;SDS011;5274;51.992;8.518;2023-07-31T08:25:36;54.17;;;50.17;;
10452;SDS011;5274;51.992;8.518;2023-07-31T08:28:02;52.05;;;48.58;;
10452;SDS011;5274;51.992;8.518;2023-07-31T08:30:28;51.42;;;47.78;;
10452;SDS011;5274;51.992;8.518;2023-07-31T08:32:55;53.22;;;49.38;;
10452;SDS011;5274;51.992;8.518;2023-07-31T08:35:21;54.35;;;50.35;;
10452;SDS011;5274;51.992;8.518;2023-07-31T08:37:47;49.67;;;45.85;;
10452;SDS011;5274;51.992;8.518;2023-07-31T08:40:12;49.50;;;46.10;;
10452;SDS011;5274;51.992;8.518;2023-07-31T08:42:43;49.08;;;45.60;;
10452;SDS011;5274;51.992;8.518;2023-07-31T08:45:09;42.78;;;39.70;;
10452;SDS011;5274;51.992;8.518;2023-07-31T08:47:36;49.65;;;46.35;;
10452;SDS011;5274;51.992;8.518;2023-07-31T08:50:03;53.55;;;49.95;;
10452;SDS011;5274;51.992;8.518;2023-07-31T08:52:29;54.17;;;50.33;;
10452;SDS011;5274;51.992;8.518;2023-07-31T08:54:55;50.13;;;46.50;;
10452;SDS011;5274;51.992;8.518;2023-07-31T08:57:21;52.72;;;49.03;;
10452;SDS011;5274;51.992;8.518;2023-07-31T08:59:49;50.97;;;47.47;;
10452;SDS011;5274;51.992;8.518;2023-07-31T09:02:15;50.85;;;46.95;;
10452;SDS011;5274;51.992;8.518;2023-07-31T09:04:41;49.50;;;46.20;;
10452;SDS011;5274;51.992;8.518;2023-07-31T09:07:07;51.50;;;48.00;;
10452;SDS011;5274;51.992;8.518;2023-07-31T09:09:34;52.30;;;48.63;;
10452;SDS011;5274;51.992;8.518;2023-07-31T09:12:00;52.30;;;48.50;;
10452;SDS011;5274;51.992;8.518;2023-07-31T09:14:27;52.97;;;49.17;;
10452;SDS011;5274;51.992;8.518;2023-07-31T09:16:53;50.25;;;46.72;;
10452;SDS011;5274;51.992;8.518;2023-07-31T09:19:26;52.67;;;48.88;;
10452;SDS011;5274;51.992;8.518;2023-07-31T09:21:52;51.20;;;47.63;;
10452;SDS011;5274;51.992;8.518;2023-07-31T09:24:25;51.20;;;47.75;;
10452;SDS011;5274;51.992;8.518;2023-07-31T09:26:53;49.88;;;46.38;;
10452;SDS011;5274;51.992;8.518;2023-07-31T09:29:21;52.80;;;49.13;;
10452;SDS011;5274;51.992;8.518;2023-07-31T09:31:46;52.97;;;49.17;;
10452;SDS011;5274;51.992;8.518;2023-07-31T09:34:12;52.72;;;48.90;;
10452;SDS011;5274;51.992;8.518;2023-07-31T09:36:42;50.70;;;47.30;;
10452;SDS011;5274;51.992;8.518;2023-07-31T09:39:12;50.75;;;47.42;;
10452;SDS011;5274;51.992;8.518;2023-07-31T09:41:39;48.47;;;45.25;;
10452;SDS011;5274;51.992;8.518;2023-07-31T09:44:05;49.80;;;46.40;;
10452;SDS011;5274;51.992;8.518;2023-07-31T09:46:32;49.97;;;46.78;;
10452;SDS011;5274;51.992;8.518;2023-07-31T09:49:09;50.42;;;46.70;;
10452;SDS011;5274;51.992;8.518;2023-07-31T09:51:37;44.90;;;42.00;;
10452;SDS011;5274;51.992;8.518;2023-07-31T09:54:13;50.67;;;47.17;;
10452;SDS011;5274;51.992;8.518;2023-07-31T09:56:46;50.15;;;46.42;;
10452;SDS011;5274;51.992;8.518;2023-07-31T09:59:13;45.55;;;42.40;;
10452;SDS011;5274;51.992;8.518;2023-07-31T10:01:42;42.97;;;40.08;;
10452;SDS011;5274;51.992;8.518;2023-07-31T10:04:09;43.03;;;40.03;;
10452;SDS011;5274;51.992;8.518;2023-07-31T10:06:35;43.47;;;40.63;;
10452;SDS011;5274;51.992;8.518;2023-07-31T10:09:02;43.92;;;41.13;;
10452;SDS011;5274;51.992;8.518;2023-07-31T10:11:28;42.70;;;39.78;;
10452;SDS011;5274;51.992;8.518;2023-07-31T10:13:55;44.42;;;41.63;;
10452;SDS011;5274;51.992;8.518;2023-07-31T10:16:22;40.60;;;37.92;;
10452;SDS011;5274;51.992;8.518;2023-07-31T10:18:49;40.47;;;37.80;;
10452;SDS011;5274;51.992;8.518;2023-07-31T10:21:15;42.95;;;40.08;;
10452;SDS011;5274;51.992;8.518;2023-07-31T10:23:41;43.80;;;40.75;;
10452;SDS011;5274;51.992;8.518;2023-07-31T10:26:08;43.40;;;40.60;;
10452;SDS011;5274;51.992;8.518;2023-07-31T10:28:34;38.55;;;36.10;;
10452;SDS011;5274;51.992;8.518;2023-07-31T10:31:01;36.35;;;34.20;;
10452;SDS011;5274;51.992;8.518;2023-07-31T10:33:27;39.22;;;36.97;;
10452;SDS011;5274;51.992;8.518;2023-07-31T10:36:12;39.85;;;37.50;;
10452;SDS011;5274;51.992;8.518;2023-07-31T10:38:38;38.65;;;36.25;;
10452;SDS011;5274;51.992;8.518;2023-07-31T10:41:08;40.70;;;38.15;;
10452;SDS011;5274;51.992;8.518;2023-07-31T10:43:34;40.80;;;38.00;;
10452;SDS011;5274;51.992;8.518;2023-07-31T10:46:04;39.60;;;37.28;;
10452;SDS011;5274;51.992;8.518;2023-07-31T10:48:35;42.40;;;39.90;;
10452;SDS011;5274;51.992;8.518;2023-07-31T10:51:02;37.50;;;35.50;;
10452;SDS011;5274;51.992;8.518;2023-07-31T10:53:32;42.70;;;40.22;;
10452;SDS011;5274;51.992;8.518;2023-07-31T10:56:02;42.65;;;40.25;;
10452;SDS011;5274;51.992;8.518;2023-07-31T10:58:29;38.85;;;36.65;;
10452;SDS011;5274;51.992;8.518;2023-07-31T11:00:57;40.78;;;38.58;;
10452;SDS011;5274;51.992;8.518;2023-07-31T11:03:29;40.75;;;38.35;;
10452;SDS011;5274;51.992;8.518;2023-07-31T11:06:06;40.10;;;37.83;;
10452;SDS011;5274;51.992;8.518;2023-07-31T11:08:33;37.65;;;35.65;;
10452;SDS011;5274;51.992;8.518;2023-07-31T11:13:45;41.08;;;38.67;;
10452;SDS011;5274;51.992;8.518;2023-07-31T11:16:12;42.25;;;39.70;;
10452;SDS011;5274;51.992;8.518;2023-07-31T11:18:41;41.88;;;39.47;;
10452;SDS011;5274;51.992;8.518;2023-07-31T11:21:07;41.38;;;38.97;;
10452;SDS011;5274;51.992;8.518;2023-07-31T11:23:34;42.65;;;40.15;;
10452;SDS011;5274;51.992;8.518;2023-07-31T11:26:02;42.20;;;39.72;;
10452;SDS011;5274;51.992;8.518;2023-07-31T11:28:31;42.10;;;39.75;;
10452;SDS011;5274;51.992;8.518;2023-07-31T11:30:57;42.83;;;39.90;;
10452;SDS011;5274;51.992;8.518;2023-07-31T11:33:23;43.33;;;40.83;;
10452;SDS011;5274;51.992;8.518;2023-07-31T11:35:49;41.65;;;39.25;;
10452;SDS011;5274;51.992;8.518;2023-07-31T11:38:22;41.35;;;39.03;;
10452;SDS011;5274;51.992;8.518;2023-07-31T11:40:50;43.60;;;41.00;;
10452;SDS011;5274;51.992;8.518;2023-07-31T11:43:17;39.70;;;37.40;;
10452;SDS011;5274;51.992;8.518;2023-07-31T11:45:46;43.60;;;41.00;;
10452;SDS011;5274;51.992;8.518;2023-07-31T11:48:19;43.15;;;40.65;;
10452;SDS011;5274;51.992;8.518;2023-07-31T11:50:46;43.17;;;40.67;;
10452;SDS011;5274;51.992;8.518;2023-07-31T11:53:14;43.92;;;41.22;;
10452;SDS011;5274;51.992;8.518;2023-07-31T11:55:40;44.20;;;41.55;;
10452;SDS011;5274;51.992;8.518;2023-07-31T11:58:06;44.15;;;41.55;;
10452;SDS011;5274;51.992;8.518;2023-07-31T12:00:32;44.38;;;41.67;;
10452;SDS011;5274;51.992;8.518;2023-07-31T12:02:58;44.40;;;41.70;;
10452;SDS011;5274;51.992;8.518;2023-07-31T12:05:24;43.55;;;40.90;;
10452;SDS011;5274;51.992;8.518;2023-07-31T12:07:53;39.45;;;37.20;;
10452;SDS011;5274;51.992;8.518;2023-07-31T12:10:29;41.58;;;39.17;;
10452;SDS011;5274;51.992;8.518;2023-07-31T12:12:56;41.88;;;39.58;;
10452;SDS011;5274;51.992;8.518;2023-07-31T12:15:28;40.88;;;38.67;;
10452;SDS011;5274;51.992;8.518;2023-07-31T12:17:56;41.70;;;39.30;;
10452;SDS011;5274;51.992;8.518;2023-07-31T12:20:22;39.60;;;37.55;;
10452;SDS011;5274;51.992;8.518;2023-07-31T12:22:48;39.08;;;37.10;;
10452;SDS011;5274;51.992;8.518;2023-07-31T12:25:17;43.53;;;41.03;;
10452;SDS011;5274;51.992;8.518;2023-07-31T12:27:46;37.75;;;35.50;;
10452;SDS011;5274;51.992;8.518;2023-07-31T12:30:28;40.72;;;38.33;;
10452;SDS011;5274;51.992;8.518;2023-07-31T12:32:54;40.60;;;38.33;;
10452;SDS011;5274;51.992;8.518;2023-07-31T12:35:20;38.78;;;36.78;;
10452;SDS011;5274;51.992;8.518;2023-07-31T12:37:46;38.05;;;36.05;;
10452;SDS011;5274;51.992;8.518;2023-07-31T12:40:12;39.95;;;37.85;;
10452;SDS011;5274;51.992;8.518;2023-07-31T12:42:38;40.33;;;38.22;;
10452;SDS011;5274;51.992;8.518;2023-07-31T12:45:04;40.80;;;38.60;;
10452;SDS011;5274;51.992;8.518;2023-07-31T12:47:30;39.72;;;37.53;;
10452;SDS011;5274;51.992;8.518;2023-07-31T12:49:56;43.22;;;40.78;;
10452;SDS011;5274;51.992;8.518;2023-07-31T12:52:22;42.30;;;39.70;;
10452;SDS011;5274;51.992;8.518;2023-07-31T12:54:48;43.72;;;41.22;;
10452;SDS011;5274;51.992;8.518;2023-07-31T12:57:14;42.92;;;40.53;;
10452;SDS011;5274;51.992;8.518;2023-07-31T12:59:40;38.85;;;36.55;;
10452;SDS011;5274;51.992;8.518;2023-07-31T13:02:05;39.88;;;37.50;;
10452;SDS011;5274;51.992;8.518;2023-07-31T13:04:31;42.80;;;40.10;;
10452;SDS011;5274;51.992;8.518;2023-07-31T13:06:57;48.25;;;45.25;;
10452;SDS011;5274;51.992;8.518;2023-07-31T13:09:23;41.55;;;38.95;;
10452;SDS011;5274;51.992;8.518;2023-07-31T13:11:49;44.63;;;41.92;;
10452;SDS011;5274;51.992;8.518;2023-07-31T13:14:15;48.53;;;45.63;;
10452;SDS011;5274;51.992;8.518;2023-07-31T13:16:42;48.15;;;45.22;;
10452;SDS011;5274;51.992;8.518;2023-07-31T13:19:07;48.67;;;45.60;;
10452;SDS011;5274;51.992;8.518;2023-07-31T13:21:33;48.38;;;45.42;;
10452;SDS011;5274;51.992;8.518;2023-07-31T13:24:01;49.65;;;46.58;;
10452;SDS011;5274;51.992;8.518;2023-07-31T13:26:28;46.95;;;43.92;;
10452;SDS011;5274;51.992;8.518;2023-07-31T13:28:54;46.40;;;43.70;;
10452;SDS011;5274;51.992;8.518;2023-07-31T13:31:20;46.38;;;43.58;;
10452;SDS011;5274;51.992;8.518;2023-07-31T13:33:46;44.95;;;42.05;;
10452;SDS011;5274;51.992;8.518;2023-07-31T13:36:12;47.08;;;43.58;;
10452;SDS011;5274;51.992;8.518;2023-07-31T13:38:39;44.53;;;41.92;;
10452;SDS011;5274;51.992;8.518;2023-07-31T13:41:05;44.00;;;41.45;;
10452;SDS011;5274;51.992;8.518;2023-07-31T13:43:31;44.67;;;42.08;;
10452;SDS011;5274;51.992;8.518;2023-07-31T13:45:57;41.97;;;39.58;;
10452;SDS011;5274;51.992;8.518;2023-07-31T13:48:28;42.83;;;40.33;;
10452;SDS011;5274;51.992;8.518;2023-07-31T13:50:54;43.75;;;41.05;;
10452;SDS011;5274;51.992;8.518;2023-07-31T13:53:20;45.70;;;42.63;;
10452;SDS011;5274;51.992;8.518;2023-07-31T13:55:46;45.28;;;42.38;;
10452;SDS011;5274;51.992;8.518;2023-07-31T13:58:14;45.88;;;42.88;;
10452;SDS011;5274;51.992;8.518;2023-07-31T14:00:40;46.03;;;43.13;;
10452;SDS011;5274;51.992;8.518;2023-07-31T14:03:06;45.00;;;42.05;;
10452;SDS011;5274;51.992;8.518;2023-07-31T14:05:31;45.55;;;42.75;;
10452;SDS011;5274;51.992;8.518;2023-07-31T14:07:57;44.85;;;42.15;;
10452;SDS011;5274;51.992;8.518;2023-07-31T14:10:23;42.47;;;39.85;;
10452;SDS011;5274;51.992;8.518;2023-07-31T14:12:49;40.88;;;38.40;;
10452;SDS011;5274;51.992;8.518;2023-07-31T14:15:15;42.65;;;40.00;;
10452;SDS011;5274;51.992;8.518;2023-07-31T14:17:41;41.92;;;39.42;;
10452;SDS011;5274;51.992;8.518;2023-07-31T14:20:07;44.13;;;41.25;;
10452;SDS011;5274;51.992;8.518;2023-07-31T14:22:33;43.55;;;40.95;;
10452;SDS011;5274;51.992;8.518;2023-07-31T14:25:00;43.10;;;40.20;;
10452;SDS011;5274;51.992;8.518;2023-07-31T14:27:26;42.22;;;39.63;;
10452;SDS011;5274;51.992;8.518;2023-07-31T14:29:52;42.22;;;39.67;;
10452;SDS011;5274;51.992;8.518;2023-07-31T14:32:17;42.88;;;39.97;;
10452;SDS011;5274;51.992;8.518;2023-07-31T14:34:43;43.95;;;41.35;;